createdAt,value
2023-03-02T00:47:11.192Z,21.90
2023-03-02T00:49:39.552Z,21.90
2023-03-02T00:52:08.044Z,21.90
2023-03-02T00:54:36.417Z,21.90
2023-03-02T00:57:05.100Z,21.90
2023-03-02T00:59:33.461Z,21.90
2023-03-02T01:46:41.310Z,21.80
2023-03-02T01:49:14.640Z,21.80
2023-03-02T01:52:02.907Z,21.80
2023-03-02T01:54:31.561Z,21.80
2023-03-02T01:57:05.551Z,21.80
2023-03-02T01:59:37.600Z,21.80
2023-03-02T02:47:52.915Z,21.70
2023-03-02T02:50:25.688Z,21.70
2023-03-02T02:53:03.658Z,21.70
2023-03-02T02:55:33.810Z,21.70
2023-03-02T02:58:09.961Z,21.70
2023-03-02T03:48:06.746Z,21.60
2023-03-02T03:50:35.705Z,21.60
2023-03-02T03:53:04.353Z,21.60
2023-03-02T03:55:32.874Z,21.60
2023-03-02T03:58:01.442Z,21.60
2023-03-02T04:47:30.574Z,22.00
2023-03-02T04:49:59.016Z,22.30
2023-03-02T04:52:27.370Z,22.60
2023-03-02T04:54:55.885Z,22.80
2023-03-02T04:57:24.185Z,22.90
2023-03-02T04:59:52.523Z,23.00
2023-03-02T05:46:08.834Z,22.90
2023-03-02T05:48:37.334Z,22.80
2023-03-02T05:51:06.624Z,22.80
2023-03-02T05:53:35.070Z,22.80
2023-03-02T05:56:03.435Z,22.70
2023-03-02T05:58:32.484Z,22.70
2023-03-02T06:01:00.846Z,22.70
2023-03-02T06:03:30.553Z,22.70
2023-03-02T06:05:59.905Z,22.60
2023-03-02T06:08:28.575Z,22.60
2023-03-02T06:10:57.558Z,22.50
2023-03-02T06:13:26.035Z,22.50
2023-03-02T06:15:54.485Z,22.40
2023-03-02T06:18:22.834Z,22.40
2023-03-02T06:20:52.608Z,22.40
2023-03-02T06:23:20.977Z,22.30
2023-03-02T06:25:49.354Z,22.30
2023-03-02T06:28:19.829Z,22.30
2023-03-02T06:30:49.576Z,22.30
2023-03-02T06:33:19.247Z,22.30
2023-03-02T06:35:47.955Z,22.30
2023-03-02T06:38:18.170Z,22.30
2023-03-02T06:40:47.056Z,22.30
2023-03-02T06:43:15.777Z,22.30
2023-03-02T06:45:44.274Z,22.30
2023-03-02T06:48:12.661Z,22.20
2023-03-02T06:50:41.049Z,22.20
2023-03-02T06:53:09.443Z,22.20
2023-03-02T06:55:39.213Z,22.20
2023-03-02T06:58:07.569Z,22.20
2023-03-02T07:00:35.896Z,22.20
2023-03-02T07:03:04.284Z,22.20
2023-03-02T07:05:33.182Z,22.10
2023-03-02T07:08:02.466Z,22.10
2023-03-02T07:10:31.053Z,22.10
2023-03-02T07:13:00.827Z,22.10
2023-03-02T07:15:29.453Z,22.10
2023-03-02T07:17:57.818Z,22.10
2023-03-02T07:20:26.326Z,22.10
2023-03-02T07:22:54.604Z,22.10
2023-03-02T07:25:23.235Z,22.10
2023-03-02T07:27:51.621Z,22.10
2023-03-02T07:30:21.930Z,22.10
2023-03-02T07:32:50.688Z,22.10
2023-03-02T07:35:20.091Z,22.10
2023-03-02T07:37:48.514Z,22.10
2023-03-02T07:40:17.122Z,22.00
2023-03-02T07:42:45.417Z,22.00
2023-03-02T07:45:16.761Z,22.00
2023-03-02T07:47:46.677Z,22.00
2023-03-02T07:50:15.012Z,22.00
2023-03-02T07:52:43.502Z,22.00
2023-03-02T07:55:12.285Z,22.00
2023-03-02T07:57:40.680Z,22.00
2023-03-02T08:00:11.249Z,22.00
2023-03-02T08:02:42.729Z,22.00
2023-03-02T08:05:13.293Z,22.00
2023-03-02T08:07:42.309Z,22.00
2023-03-02T08:10:13.193Z,22.00
2023-03-02T08:12:42.846Z,22.00
2023-03-02T08:15:12.858Z,21.90
2023-03-02T08:17:41.334Z,21.90
2023-03-02T08:20:12.506Z,21.90
2023-03-02T08:22:40.836Z,21.90
2023-03-02T08:25:09.682Z,21.90
2023-03-02T08:27:40.369Z,21.90
2023-03-02T08:30:12.560Z,21.90
2023-03-02T08:32:41.475Z,21.90
2023-03-02T08:35:10.539Z,21.90
2023-03-02T08:37:40.214Z,21.90
2023-03-02T08:40:10.663Z,21.90
2023-03-02T08:42:39.371Z,21.90
2023-03-02T08:45:09.652Z,21.90
2023-03-02T08:47:38.611Z,21.90
2023-03-02T08:50:07.892Z,21.90
2023-03-02T08:52:36.331Z,21.90
2023-03-02T08:55:08.205Z,21.90
2023-03-02T08:57:36.774Z,21.90
2023-03-02T09:00:09.177Z,21.90
2023-03-02T09:02:37.458Z,21.90
2023-03-02T09:05:06.534Z,21.90
2023-03-02T09:07:34.918Z,21.90
2023-03-02T09:10:03.347Z,21.90
2023-03-02T09:12:33.160Z,21.90
2023-03-02T09:15:01.538Z,21.90
2023-03-02T09:17:29.950Z,21.90
2023-03-02T09:20:00.428Z,21.80
2023-03-02T09:22:28.801Z,21.80
2023-03-02T09:24:57.265Z,21.80
2023-03-02T09:27:25.717Z,21.70
2023-03-02T09:29:55.553Z,21.70
2023-03-02T09:32:24.016Z,21.70
2023-03-02T09:34:52.630Z,21.70
2023-03-02T09:37:20.916Z,21.70
2023-03-02T09:39:49.606Z,21.70
2023-03-02T09:42:44.581Z,21.70
2023-03-02T09:45:34.086Z,21.70
2023-03-02T09:48:15.793Z,21.70
2023-03-02T09:50:57.241Z,21.70
2023-03-02T09:53:37.990Z,21.80
2023-03-02T09:56:16.353Z,21.70
2023-03-02T09:58:52.786Z,21.70
2023-03-02T10:01:36.721Z,21.70
2023-03-02T10:04:18.585Z,21.70
2023-03-02T10:06:47.680Z,21.80
2023-03-02T10:09:16.063Z,21.70
2023-03-02T10:12:08.062Z,21.70
2023-03-02T10:14:42.569Z,21.70
2023-03-02T10:17:52.899Z,21.70
2023-03-02T10:20:34.089Z,21.70
2023-03-02T10:23:18.473Z,21.70
2023-03-02T10:25:53.407Z,21.70
2023-03-02T10:28:25.172Z,21.70
2023-03-02T10:30:59.154Z,21.70
2023-03-02T10:33:29.506Z,21.70
2023-03-02T10:36:01.062Z,21.70
2023-03-02T10:38:30.361Z,21.70
2023-03-02T10:41:01.941Z,21.70
2023-03-02T10:43:36.384Z,21.70
2023-03-02T10:46:08.502Z,21.70
2023-03-02T10:48:51.077Z,21.70
2023-03-02T10:51:26.670Z,21.70
2023-03-02T10:54:10.979Z,21.70
2023-03-02T10:56:39.911Z,21.70
2023-03-02T10:59:39.411Z,21.70
2023-03-02T11:02:17.956Z,21.70
2023-03-02T11:04:47.750Z,21.70
2023-03-02T11:07:19.702Z,21.70
2023-03-02T11:09:59.963Z,21.70
2023-03-02T11:12:29.167Z,21.70
2023-03-02T11:15:19.080Z,21.70
2023-03-02T11:17:51.792Z,21.70
2023-03-02T11:20:26.974Z,21.70
2023-03-02T11:23:09.335Z,21.70
2023-03-02T11:25:44.711Z,21.70
2023-03-02T11:28:32.865Z,21.70
2023-03-02T11:31:03.908Z,21.70
2023-03-02T11:33:38.472Z,21.70
2023-03-02T11:36:15.895Z,21.60
2023-03-02T11:38:50.203Z,21.70
2023-03-02T11:41:29.900Z,21.70
2023-03-02T11:44:02.405Z,21.70
2023-03-02T11:46:33.753Z,21.70
2023-03-02T11:49:07.345Z,21.60
2023-03-02T11:51:44.670Z,21.60
2023-03-02T11:54:37.740Z,21.60
2023-03-02T11:57:06.719Z,21.70
2023-03-02T11:59:36.635Z,21.70
2023-03-02T12:02:05.718Z,21.70
2023-03-02T12:04:36.414Z,21.70
2023-03-02T12:07:22.775Z,21.70
2023-03-02T12:10:05.361Z,21.70
2023-03-02T12:12:49.337Z,21.70
2023-03-02T12:15:46.082Z,21.70
2023-03-02T12:18:43.407Z,21.70
2023-03-02T12:21:15.729Z,21.70
2023-03-02T12:24:03.743Z,21.70
2023-03-02T12:26:36.992Z,21.70
2023-03-02T12:29:23.710Z,21.70
2023-03-02T12:31:54.924Z,21.60
2023-03-02T12:34:40.138Z,21.70
2023-03-02T12:37:18.514Z,21.70
2023-03-02T12:40:29.573Z,21.60
2023-03-02T12:43:26.566Z,21.60
2023-03-02T12:46:30.317Z,21.60
2023-03-02T12:49:36.361Z,21.60
2023-03-02T12:52:24.186Z,21.60
2023-03-02T12:55:08.739Z,21.60
2023-03-02T12:57:47.670Z,21.60
2023-03-02T13:00:19.733Z,21.70
2023-03-02T13:02:50.381Z,21.70
2023-03-02T13:05:22.594Z,21.70
2023-03-02T13:07:59.572Z,21.70
2023-03-02T13:10:37.105Z,21.70
2023-03-02T13:13:18.157Z,21.70
2023-03-02T13:15:52.080Z,21.70
2023-03-02T13:18:22.585Z,21.70
2023-03-02T13:20:52.601Z,21.70
2023-03-02T13:23:21.568Z,21.70
2023-03-02T13:25:55.034Z,21.70
2023-03-02T13:28:30.096Z,21.70
2023-03-02T13:31:01.516Z,21.70
2023-03-02T13:33:32.000Z,21.70
2023-03-02T13:36:01.103Z,21.70
2023-03-02T13:38:35.039Z,21.70
2023-03-02T13:41:05.662Z,21.70
2023-03-02T13:43:39.970Z,21.70
2023-03-02T13:46:29.531Z,21.70
2023-03-02T13:49:09.783Z,21.70
2023-03-02T13:51:43.274Z,21.70
2023-03-02T13:54:22.989Z,21.70
2023-03-02T13:56:54.619Z,21.70
2023-03-02T13:59:24.151Z,21.70
2023-03-02T14:01:52.766Z,21.70
2023-03-02T14:04:24.266Z,21.80
2023-03-02T14:06:54.253Z,21.80
2023-03-02T14:09:23.335Z,21.80
2023-03-02T14:11:57.046Z,21.70
2023-03-02T14:14:28.619Z,21.70
2023-03-02T14:16:57.380Z,21.70
2023-03-02T14:19:25.909Z,21.70
2023-03-02T14:21:54.372Z,21.70
2023-03-02T14:24:22.801Z,21.70
2023-03-02T14:26:52.516Z,21.80
2023-03-02T14:29:26.619Z,21.90
2023-03-02T14:31:55.968Z,21.90
2023-03-02T14:34:24.921Z,22.00
2023-03-02T14:36:55.799Z,22.00
2023-03-02T14:39:35.207Z,22.00
2023-03-02T14:42:06.139Z,22.00
2023-03-02T14:44:34.649Z,22.00
2023-03-02T14:47:03.097Z,22.00
2023-03-02T14:49:31.901Z,22.00
2023-03-02T14:52:05.556Z,22.00
2023-03-02T14:54:40.749Z,22.00
2023-03-02T14:57:19.528Z,22.00
2023-03-02T14:59:48.177Z,21.90
2023-03-02T15:02:25.140Z,21.90
2023-03-02T15:04:56.931Z,21.90
2023-03-02T15:07:27.470Z,21.90
2023-03-02T15:09:56.526Z,21.90
2023-03-02T15:12:26.798Z,21.90
2023-03-02T15:14:55.351Z,21.90
2023-03-02T15:17:24.093Z,21.90
2023-03-02T15:19:52.834Z,21.90
2023-03-02T15:22:21.265Z,21.90
2023-03-02T15:24:49.871Z,21.90
2023-03-02T15:27:18.422Z,21.90
2023-03-02T15:29:49.486Z,21.90
2023-03-02T15:32:18.365Z,21.80
2023-03-02T15:34:48.474Z,21.80
2023-03-02T15:37:17.138Z,21.80
2023-03-02T15:39:45.551Z,21.80
2023-03-02T15:42:14.170Z,21.80
2023-03-02T15:44:42.841Z,21.80
2023-03-02T15:47:13.079Z,21.80
2023-03-02T15:49:41.560Z,21.70
2023-03-02T15:52:11.059Z,21.70
2023-03-02T15:54:39.549Z,21.70
2023-03-02T15:57:09.340Z,21.70
2023-03-02T15:59:38.043Z,21.60
2023-03-02T16:02:06.523Z,21.60
2023-03-02T16:04:36.468Z,21.50
2023-03-02T16:07:05.981Z,21.50
2023-03-02T16:09:34.485Z,21.50
2023-03-02T16:12:02.799Z,21.50
2023-03-02T16:14:31.305Z,21.50
2023-03-02T16:16:59.681Z,21.50
2023-03-02T16:19:28.217Z,21.50
2023-03-02T16:21:58.329Z,21.50
2023-03-02T16:24:27.106Z,21.50
2023-03-02T16:26:55.511Z,21.60
2023-03-02T16:29:24.592Z,21.60
2023-03-02T16:31:53.532Z,21.60
2023-03-02T16:34:22.310Z,21.60
2023-03-02T16:36:50.744Z,21.60
2023-03-02T16:39:20.415Z,21.70
2023-03-02T16:41:48.846Z,21.70
2023-03-02T16:44:17.390Z,21.70
2023-03-02T16:46:45.920Z,21.80
2023-03-02T16:49:15.677Z,21.80
2023-03-02T16:51:44.790Z,21.80
2023-03-02T16:54:17.717Z,21.90
2023-03-02T16:56:47.775Z,21.90
2023-03-02T16:59:16.437Z,22.00
2023-03-02T17:01:45.079Z,22.10
2023-03-02T17:04:13.619Z,22.10
2023-03-02T17:06:59.965Z,22.10
2023-03-02T17:09:28.958Z,22.10
2023-03-02T17:11:58.888Z,22.20
2023-03-02T17:14:27.617Z,22.20
2023-03-02T17:16:57.837Z,22.20
2023-03-02T17:19:26.938Z,22.10
2023-03-02T17:21:58.122Z,22.10
2023-03-02T17:24:26.525Z,22.10
2023-03-02T17:26:54.917Z,22.00
2023-03-02T17:29:25.287Z,22.10
2023-03-02T17:31:53.992Z,22.00
2023-03-02T17:34:22.629Z,22.00
2023-03-02T17:36:50.927Z,22.00
2023-03-02T17:39:19.242Z,22.10
2023-03-02T17:41:47.597Z,22.00
2023-03-02T17:44:16.003Z,22.10
2023-03-02T17:46:46.545Z,22.00
2023-03-02T17:49:15.146Z,22.00
2023-03-02T17:51:43.563Z,22.00
2023-03-02T17:54:11.998Z,22.10
2023-03-02T17:56:40.362Z,22.00
2023-03-02T17:59:08.782Z,22.10
2023-03-02T18:01:37.230Z,22.10
2023-03-02T18:04:07.243Z,22.10
2023-03-02T18:06:35.746Z,22.10
2023-03-02T18:09:04.471Z,22.10
2023-03-02T18:11:33.038Z,22.10
2023-03-02T18:14:01.522Z,22.10
2023-03-02T18:16:30.027Z,22.10
2023-03-02T18:18:58.688Z,22.10
2023-03-02T18:21:28.772Z,22.10
2023-03-02T18:23:57.218Z,22.10
2023-03-02T18:26:26.065Z,22.20
2023-03-02T18:28:54.638Z,22.20
2023-03-02T18:31:23.465Z,22.20
2023-03-02T18:33:52.175Z,22.10
2023-03-02T18:36:20.755Z,22.10
2023-03-02T18:38:53.374Z,22.20
2023-03-02T18:41:23.382Z,22.50
2023-03-02T18:43:52.043Z,22.70
2023-03-02T18:46:23.899Z,22.80
2023-03-02T18:48:52.931Z,23.00
2023-03-02T18:51:22.499Z,23.00
2023-03-02T18:53:53.343Z,23.00
2023-03-02T18:56:22.561Z,23.00
2023-03-02T18:58:51.748Z,22.90
2023-03-02T19:01:22.284Z,22.90
2023-03-02T19:03:50.966Z,22.80
2023-03-02T19:06:20.482Z,22.80
2023-03-02T19:08:49.554Z,22.70
2023-03-02T19:11:19.381Z,22.70
2023-03-02T19:13:48.094Z,22.70
2023-03-02T19:16:18.382Z,22.60
2023-03-02T19:18:47.071Z,22.50
2023-03-02T19:21:15.812Z,22.50
2023-03-02T19:23:46.480Z,22.50
2023-03-02T19:26:15.122Z,22.50
2023-03-02T19:28:44.917Z,22.50
2023-03-02T19:31:14.140Z,22.50
2023-03-02T19:33:44.908Z,22.40
2023-03-02T19:36:14.624Z,22.40
2023-03-02T19:38:44.406Z,22.40
2023-03-02T19:41:14.960Z,22.40
2023-03-02T19:43:45.934Z,22.40
2023-03-02T19:46:15.830Z,22.40
2023-03-02T19:48:44.487Z,22.30
2023-03-02T19:51:13.510Z,22.40
2023-03-02T19:53:43.098Z,22.30
2023-03-02T19:56:14.817Z,22.30
2023-03-02T19:58:49.668Z,22.30
2023-03-02T20:01:21.835Z,22.40
2023-03-02T20:03:51.775Z,22.40
2023-03-02T20:06:20.763Z,22.40
2023-03-02T20:08:49.443Z,22.50
2023-03-02T20:11:19.046Z,22.50
2023-03-02T20:13:50.613Z,22.50
2023-03-02T20:16:22.795Z,22.50
2023-03-02T20:18:51.220Z,22.50
2023-03-02T20:21:21.225Z,22.50
2023-03-02T20:23:50.476Z,22.50
2023-03-02T20:26:18.972Z,22.50
2023-03-02T20:28:49.434Z,22.50
2023-03-02T20:31:18.334Z,22.50
2023-03-02T20:33:51.374Z,22.40
2023-03-02T20:36:25.927Z,22.40
2023-03-02T20:38:58.457Z,22.50
2023-03-02T20:41:27.480Z,22.50
2023-03-02T20:43:57.510Z,22.50
2023-03-02T20:46:30.914Z,22.50
2023-03-02T20:48:59.477Z,22.50
2023-03-02T20:51:29.264Z,22.40
2023-03-02T20:53:58.329Z,22.50
2023-03-02T20:56:26.906Z,22.50
2023-03-02T20:58:56.921Z,22.50
2023-03-02T21:01:25.921Z,22.50
2023-03-02T21:03:54.534Z,22.50
2023-03-02T21:06:23.346Z,22.50
2023-03-02T21:08:52.760Z,22.50
2023-03-02T21:11:23.430Z,22.50
2023-03-02T21:13:51.944Z,22.50
2023-03-02T21:16:24.939Z,22.50
2023-03-02T21:18:54.740Z,22.40
2023-03-02T21:21:40.419Z,22.50
2023-03-02T21:24:10.514Z,22.50
2023-03-02T21:26:41.534Z,22.50
2023-03-02T21:29:11.816Z,22.50
2023-03-02T21:31:43.898Z,22.50
2023-03-02T21:34:13.342Z,22.50
2023-03-02T21:36:42.719Z,22.50
2023-03-02T21:39:11.815Z,22.60
2023-03-02T21:41:40.617Z,22.60
2023-03-02T21:44:09.106Z,22.60
2023-03-02T21:46:39.238Z,22.60
2023-03-02T21:49:09.254Z,22.60
2023-03-02T21:51:37.702Z,22.60
2023-03-02T21:54:06.867Z,22.60
2023-03-02T21:56:35.563Z,22.60
2023-03-02T21:59:05.034Z,22.60
2023-03-02T22:01:33.964Z,22.60
2023-03-02T22:04:02.501Z,22.60
2023-03-02T22:06:35.038Z,22.60
2023-03-02T22:09:04.772Z,22.60
2023-03-02T22:11:36.428Z,22.50
2023-03-02T22:14:13.354Z,22.50
2023-03-02T22:16:45.131Z,22.50
2023-03-02T22:19:26.920Z,22.40
2023-03-02T22:22:01.159Z,22.40
2023-03-02T22:24:31.550Z,22.40
2023-03-02T22:27:03.263Z,22.30
2023-03-02T22:29:38.947Z,22.30
2023-03-02T22:32:18.080Z,22.30
2023-03-02T22:34:48.506Z,22.40
2023-03-02T22:37:20.335Z,22.30
2023-03-02T22:39:50.110Z,22.30
2023-03-02T22:42:21.563Z,22.30
2023-03-02T22:45:00.362Z,22.30
2023-03-02T22:47:29.016Z,22.30
2023-03-02T22:50:01.553Z,22.30
2023-03-02T22:52:39.439Z,22.30
2023-03-02T22:55:32.107Z,22.30
2023-03-02T22:58:00.968Z,22.30
2023-03-02T23:00:38.728Z,22.30
2023-03-02T23:03:17.708Z,22.30
2023-03-02T23:05:49.115Z,22.30
2023-03-02T23:08:24.021Z,22.30
2023-03-02T23:10:54.912Z,22.30
2023-03-02T23:13:27.395Z,22.20
2023-03-02T23:15:56.520Z,22.20
2023-03-02T23:18:27.774Z,22.20
2023-03-02T23:20:56.893Z,22.20
2023-03-02T23:23:28.523Z,22.20
2023-03-02T23:25:57.025Z,22.20
2023-03-02T23:28:25.643Z,22.20
2023-03-02T23:30:54.048Z,22.20
2023-03-02T23:33:22.430Z,22.20
2023-03-02T23:35:50.784Z,22.20
2023-03-02T23:38:19.917Z,22.20
2023-03-02T23:40:49.872Z,22.20
2023-03-02T23:43:18.220Z,22.20
2023-03-02T23:45:47.257Z,22.20
2023-03-02T23:48:16.576Z,22.20
2023-03-02T23:50:45.481Z,22.10
2023-03-02T23:53:14.320Z,22.20
2023-03-02T23:55:47.886Z,22.20
2023-03-02T23:58:18.397Z,22.10
